Time;durP1;ratioP1;P1;durP2;ratioP2;P2;SDS_P1;SDS_P2;PMS_P1;PMS_P2;Temp;Humidity;BMP_temperature;BMP_pressure;BME280_temperature;BME280_humidity;BME280_pressure;Samples;Min_cycle;Max_cycle;Signal;HPM_P1;HPM_P2
2021/12/29 00:00:13;;;;;;;;;;;21.90;52.30;;;;;;5043424;28;19916;-67
2021/12/29 00:02:39;;;;;;;;;;;21.90;52.40;;;;;;5044554;28;20002;-64
2021/12/29 00:05:05;;;;;;;;;;;21.90;52.40;;;;;;5047143;28;19912;-64
2021/12/29 00:07:30;;;;;;;;;;;21.90;52.40;;;;;;5042017;28;19919;-63
2021/12/29 00:09:59;;;;;;;;;;;21.90;52.40;;;;;;5042804;28;20016;-64
2021/12/29 00:12:26;;;;;;;;;;;21.90;52.40;;;;;;5043072;28;20039;-65
2021/12/29 00:14:52;;;;;;;;;;;21.80;52.40;;;;;;5043774;28;19917;-68
2021/12/29 00:17:17;;;;;;;;;;;21.80;52.50;;;;;;5039658;28;19917;-65
2021/12/29 00:19:43;;;;;;;;;;;21.80;52.40;;;;;;5041090;28;20213;-64
2021/12/29 00:22:08;;;;;;;;;;;21.70;52.40;;;;;;5043805;28;19904;-67
2021/12/29 00:24:34;;;;;;;;;;;21.80;52.50;;;;;;5045949;28;20013;-65
2021/12/29 00:26:59;;;;;;;;;;;21.80;52.50;;;;;;5045204;28;19905;-64
2021/12/29 00:29:25;;;;;;;;;;;21.70;53.00;;;;;;5046269;28;20345;-65
2021/12/29 00:31:50;;;;;;;;;;;21.70;52.50;;;;;;5046617;28;19916;-68
2021/12/29 00:34:16;;;;;;;;;;;21.70;52.50;;;;;;5047238;28;20008;-65
2021/12/29 00:36:41;;;;;;;;;;;21.70;52.50;;;;;;5043995;28;19911;-64
2021/12/29 00:39:07;;;;;;;;;;;21.70;52.50;;;;;;5046039;28;19954;-64
2021/12/29 00:41:32;;;;;;;;;;;21.70;52.60;;;;;;5044371;28;20663;-63
2021/12/29 00:43:58;;;;;;;;;;;21.70;52.60;;;;;;5047129;28;20372;-65
2021/12/29 00:46:23;;;;;;;;;;;21.60;52.60;;;;;;5045197;28;19924;-64
2021/12/29 00:48:49;;;;;;;;;;;21.60;52.80;;;;;;5045787;28;20011;-65
2021/12/29 00:51:15;;;;;;;;;;;21.60;52.60;;;;;;5044927;28;19951;-64
2021/12/29 00:53:41;;;;;;;;;;;21.60;52.60;;;;;;5042756;28;19951;-68
2021/12/29 00:56:06;;;;;;;;;;;21.50;52.60;;;;;;5038364;28;20356;-65
2021/12/29 00:58:32;;;;;;;;;;;21.50;52.60;;;;;;5043696;28;20004;-65
2021/12/29 01:00:59;;;;;;;;;;;21.50;52.70;;;;;;5046300;28;19917;-63
2021/12/29 01:03:24;;;;;;;;;;;21.50;52.60;;;;;;5044440;28;19912;-68
2021/12/29 01:05:50;;;;;;;;;;;21.50;52.70;;;;;;5045309;28;20568;-64
2021/12/29 01:08:15;;;;;;;;;;;21.50;52.70;;;;;;5042989;28;19913;-67
2021/12/29 01:10:41;;;;;;;;;;;21.50;52.70;;;;;;5045753;28;19939;-67
2021/12/29 01:13:08;;;;;;;;;;;21.50;52.80;;;;;;5038143;28;19917;-65
2021/12/29 01:15:46;;;;;;;;;;;21.50;52.80;;;;;;5043376;28;19917;-67
2021/12/29 01:18:12;;;;;;;;;;;21.40;52.70;;;;;;5045982;28;19920;-64
2021/12/29 01:20:38;;;;;;;;;;;21.40;52.70;;;;;;5043966;28;19912;-67
2021/12/29 01:23:04;;;;;;;;;;;21.40;52.80;;;;;;5041588;28;19915;-65
2021/12/29 01:25:30;;;;;;;;;;;21.40;52.80;;;;;;5044415;28;19913;-65
2021/12/29 01:27:55;;;;;;;;;;;21.30;52.80;;;;;;5044893;28;19908;-64
2021/12/29 01:30:21;;;;;;;;;;;21.30;52.80;;;;;;5040133;28;19913;-67
2021/12/29 01:32:47;;;;;;;;;;;21.30;52.80;;;;;;5044914;28;20017;-65
2021/12/29 01:35:12;;;;;;;;;;;21.40;52.90;;;;;;5044898;28;20514;-64
2021/12/29 01:37:38;;;;;;;;;;;21.30;52.90;;;;;;5042617;28;20504;-63
2021/12/29 01:40:06;;;;;;;;;;;21.30;52.90;;;;;;5044047;28;19909;-63
2021/12/29 01:42:32;;;;;;;;;;;21.30;52.90;;;;;;5041034;28;19969;-68
2021/12/29 01:44:57;;;;;;;;;;;21.30;53.00;;;;;;5043182;28;19908;-65
2021/12/29 01:47:23;;;;;;;;;;;21.30;53.00;;;;;;5042717;28;20265;-65
2021/12/29 01:49:49;;;;;;;;;;;21.30;53.00;;;;;;5041285;28;20154;-63
2021/12/29 01:52:20;;;;;;;;;;;21.30;53.00;;;;;;5041868;28;21775;-67
2021/12/29 01:54:46;;;;;;;;;;;21.20;52.90;;;;;;5041291;28;19915;-64
2021/12/29 01:57:11;;;;;;;;;;;21.20;53.00;;;;;;5039725;28;19912;-64
2021/12/29 01:59:37;;;;;;;;;;;21.20;53.00;;;;;;5045499;28;19974;-65
2021/12/29 02:02:03;;;;;;;;;;;21.20;53.00;;;;;;5042954;28;19920;-66
2021/12/29 02:04:28;;;;;;;;;;;21.10;53.00;;;;;;5043388;28;19912;-64
2021/12/29 02:06:54;;;;;;;;;;;21.10;53.00;;;;;;5041181;28;19916;-65
2021/12/29 02:09:20;;;;;;;;;;;21.20;53.10;;;;;;5040144;28;19916;-64
2021/12/29 02:11:45;;;;;;;;;;;21.20;53.10;;;;;;5040016;28;20030;-65
2021/12/29 02:14:11;;;;;;;;;;;21.10;53.00;;;;;;5043971;28;19913;-64
2021/12/29 02:16:37;;;;;;;;;;;21.10;53.10;;;;;;5043837;28;20413;-63
2021/12/29 02:19:04;;;;;;;;;;;21.10;53.10;;;;;;5045982;28;19919;-64
2021/12/29 02:21:31;;;;;;;;;;;21.10;53.10;;;;;;5041906;28;20759;-64
2021/12/29 02:26:30;;;;;;;;;;;21.00;53.10;;;;;;5040307;28;19913;-64
2021/12/29 02:28:56;;;;;;;;;;;21.10;53.20;;;;;;5042860;28;20382;-64
2021/12/29 02:31:22;;;;;;;;;;;21.10;53.20;;;;;;5043042;28;20056;-67
2021/12/29 02:33:48;;;;;;;;;;;21.00;53.20;;;;;;5044269;28;19983;-67
2021/12/29 02:36:16;;;;;;;;;;;21.10;53.20;;;;;;5041282;28;20494;-64
2021/12/29 02:38:47;;;;;;;;;;;21.00;53.20;;;;;;5038318;28;20805;-65
2021/12/29 02:41:13;;;;;;;;;;;21.00;53.20;;;;;;5038089;28;19921;-66
2021/12/29 02:43:39;;;;;;;;;;;21.00;53.20;;;;;;5040239;28;19974;-64
2021/12/29 02:46:11;;;;;;;;;;;21.00;53.20;;;;;;5043150;28;19905;-65
2021/12/29 02:48:39;;;;;;;;;;;21.00;53.20;;;;;;5042535;28;20361;-65
2021/12/29 02:51:07;;;;;;;;;;;21.00;53.30;;;;;;5042345;28;19939;-66
2021/12/29 02:53:33;;;;;;;;;;;21.00;53.30;;;;;;5044591;28;19986;-64
2021/12/29 02:55:59;;;;;;;;;;;21.00;53.30;;;;;;5042063;28;20421;-67
2021/12/29 02:58:24;;;;;;;;;;;21.00;53.30;;;;;;5040464;28;19936;-67
2021/12/29 03:00:51;;;;;;;;;;;20.90;53.30;;;;;;5041365;28;19954;-65
2021/12/29 03:03:18;;;;;;;;;;;20.90;53.30;;;;;;5045493;28;19909;-64
2021/12/29 03:05:44;;;;;;;;;;;20.90;53.30;;;;;;5041835;28;19913;-65
2021/12/29 03:08:11;;;;;;;;;;;20.90;53.30;;;;;;5035864;28;19957;-64
2021/12/29 03:10:37;;;;;;;;;;;20.90;53.30;;;;;;5032995;28;19954;-64
2021/12/29 03:13:02;;;;;;;;;;;20.90;53.30;;;;;;5036680;28;19922;-64
2021/12/29 03:15:28;;;;;;;;;;;20.90;53.40;;;;;;5043177;28;19920;-66
2021/12/29 03:17:54;;;;;;;;;;;20.90;53.40;;;;;;5040995;28;19912;-64
2021/12/29 03:20:19;;;;;;;;;;;20.90;53.40;;;;;;5044144;28;20018;-65
2021/12/29 03:22:44;;;;;;;;;;;20.90;53.40;;;;;;5039995;28;19912;-65
2021/12/29 03:25:10;;;;;;;;;;;20.80;53.90;;;;;;5041165;28;19916;-64
2021/12/29 03:27:36;;;;;;;;;;;20.80;53.40;;;;;;5038768;28;20397;-64
2021/12/29 03:30:01;;;;;;;;;;;20.80;53.40;;;;;;5044851;28;20007;-65
2021/12/29 03:32:39;;;;;;;;;;;20.80;53.50;;;;;;5043336;28;20384;-65
2021/12/29 03:35:05;;;;;;;;;;;20.80;54.00;;;;;;5039978;28;20091;-68
2021/12/29 03:37:30;;;;;;;;;;;20.80;53.50;;;;;;5038914;28;20083;-64
2021/12/29 03:39:56;;;;;;;;;;;20.80;53.50;;;;;;5045674;28;19955;-67
2021/12/29 03:42:21;;;;;;;;;;;20.80;53.50;;;;;;5046637;28;19963;-63
2021/12/29 03:44:47;;;;;;;;;;;20.80;53.50;;;;;;5047741;28;19956;-65
2021/12/29 03:47:12;;;;;;;;;;;20.80;53.50;;;;;;5045347;28;19908;-65
2021/12/29 03:49:38;;;;;;;;;;;20.80;53.50;;;;;;5044879;28;20779;-66
2021/12/29 03:52:05;;;;;;;;;;;20.80;53.50;;;;;;5045410;28;19908;-66
2021/12/29 03:54:31;;;;;;;;;;;20.70;53.50;;;;;;5046347;28;19909;-64
2021/12/29 03:57:00;;;;;;;;;;;20.70;53.50;;;;;;5046488;28;19939;-64
2021/12/29 03:59:27;;;;;;;;;;;20.80;53.60;;;;;;5046981;28;19957;-65
2021/12/29 04:01:52;;;;;;;;;;;20.70;53.50;;;;;;5040172;28;19927;-65
2021/12/29 04:04:18;;;;;;;;;;;20.70;53.50;;;;;;5044442;28;19914;-65
2021/12/29 04:06:44;;;;;;;;;;;20.70;53.50;;;;;;5045672;28;20020;-64
2021/12/29 04:09:09;;;;;;;;;;;20.70;53.50;;;;;;5044682;28;19973;-64
2021/12/29 04:11:35;;;;;;;;;;;20.70;54.10;;;;;;5040881;28;19909;-65
2021/12/29 04:14:00;;;;;;;;;;;20.70;53.60;;;;;;5047279;28;19931;-65
2021/12/29 04:16:26;;;;;;;;;;;20.70;53.50;;;;;;5046061;28;20000;-65
2021/12/29 04:21:36;;;;;;;;;;;20.70;53.50;;;;;;5042142;28;20669;-65
2021/12/29 04:24:02;;;;;;;;;;;20.70;53.60;;;;;;5048324;28;20368;-64
2021/12/29 04:26:27;;;;;;;;;;;20.60;53.50;;;;;;5045108;28;19913;-67
2021/12/29 04:28:53;;;;;;;;;;;20.60;53.50;;;;;;5044708;28;19939;-67
2021/12/29 04:31:18;;;;;;;;;;;20.70;53.60;;;;;;5043728;28;20198;-64
2021/12/29 04:33:44;;;;;;;;;;;20.60;53.50;;;;;;5046650;28;19998;-65
2021/12/29 04:36:09;;;;;;;;;;;20.70;53.60;;;;;;5043835;28;19932;-66
2021/12/29 04:38:35;;;;;;;;;;;20.60;53.50;;;;;;5047701;28;19947;-67
2021/12/29 04:41:00;;;;;;;;;;;20.60;53.50;;;;;;5043667;28;19919;-67
2021/12/29 04:43:26;;;;;;;;;;;20.60;53.60;;;;;;5044091;28;19954;-65
2021/12/29 04:45:52;;;;;;;;;;;20.60;53.60;;;;;;5044326;28;19912;-67
2021/12/29 04:48:18;;;;;;;;;;;20.60;53.60;;;;;;5045284;28;20296;-68
2021/12/29 04:50:53;;;;;;;;;;;20.60;53.60;;;;;;5045035;28;19959;-64
2021/12/29 04:53:21;;;;;;;;;;;20.60;53.60;;;;;;5044693;28;19978;-64
2021/12/29 04:55:49;;;;;;;;;;;20.60;53.60;;;;;;5045740;28;19924;-64
2021/12/29 04:58:15;;;;;;;;;;;20.60;53.60;;;;;;5046157;28;19912;-67
2021/12/29 05:00:40;;;;;;;;;;;20.60;53.70;;;;;;5044883;28;19917;-65
2021/12/29 05:03:06;;;;;;;;;;;20.60;53.70;;;;;;5043661;28;20289;-64
2021/12/29 05:10:42;;;;;;;;;;;20.50;53.60;;;;;;5044765;28;19978;-65
2021/12/29 05:13:07;;;;;;;;;;;20.50;53.70;;;;;;5043741;28;19913;-64
2021/12/29 05:15:33;;;;;;;;;;;20.50;53.70;;;;;;5044406;28;20270;-65
2021/12/29 05:17:59;;;;;;;;;;;20.50;53.70;;;;;;5046050;28;19990;-65
2021/12/29 05:20:26;;;;;;;;;;;20.50;53.70;;;;;;5045315;28;20027;-67
2021/12/29 05:22:52;;;;;;;;;;;20.50;53.70;;;;;;5043809;28;19974;-68
2021/12/29 05:25:17;;;;;;;;;;;20.50;53.70;;;;;;5046082;28;19944;-64
2021/12/29 05:27:43;;;;;;;;;;;20.50;53.70;;;;;;5035628;28;19990;-64
2021/12/29 05:30:08;;;;;;;;;;;20.50;53.80;;;;;;5045259;28;19908;-65
2021/12/29 05:32:34;;;;;;;;;;;20.50;53.70;;;;;;5044888;28;19920;-65
2021/12/29 05:34:59;;;;;;;;;;;20.50;53.70;;;;;;5044204;28;20362;-63
2021/12/29 05:37:25;;;;;;;;;;;20.50;53.70;;;;;;5044018;28;19951;-63
2021/12/29 05:39:50;;;;;;;;;;;20.50;53.80;;;;;;5042095;28;19920;-63
2021/12/29 05:42:16;;;;;;;;;;;20.50;53.80;;;;;;5044925;28;19916;-65
2021/12/29 05:44:41;;;;;;;;;;;20.50;53.80;;;;;;5046038;28;20099;-64
2021/12/29 05:47:07;;;;;;;;;;;20.50;53.80;;;;;;5046009;28;19974;-65
2021/12/29 05:49:32;;;;;;;;;;;20.50;53.80;;;;;;5047033;28;19913;-63
2021/12/29 05:51:58;;;;;;;;;;;20.50;53.80;;;;;;5041419;28;19958;-65
2021/12/29 05:54:23;;;;;;;;;;;20.50;53.80;;;;;;5044840;28;19925;-65
2021/12/29 05:56:49;;;;;;;;;;;20.40;53.80;;;;;;5039889;28;19979;-67
2021/12/29 05:59:14;;;;;;;;;;;20.50;53.90;;;;;;5045083;28;19920;-68
2021/12/29 06:01:42;;;;;;;;;;;20.50;53.90;;;;;;5040967;28;19970;-67
2021/12/29 06:04:08;;;;;;;;;;;20.50;53.90;;;;;;5045010;28;19916;-65
2021/12/29 06:06:34;;;;;;;;;;;20.40;53.80;;;;;;5039852;28;19920;-63
2021/12/29 06:08:59;;;;;;;;;;;20.50;53.90;;;;;;5045166;28;19960;-64
2021/12/29 06:11:25;;;;;;;;;;;20.40;53.80;;;;;;5044920;28;19959;-65
2021/12/29 06:13:50;;;;;;;;;;;20.40;53.80;;;;;;5043226;28;19916;-65
2021/12/29 06:16:16;;;;;;;;;;;20.40;53.90;;;;;;5042300;28;19963;-65
2021/12/29 06:18:41;;;;;;;;;;;20.40;53.90;;;;;;5045378;28;19952;-67
2021/12/29 06:21:07;;;;;;;;;;;20.40;53.90;;;;;;5042932;28;19912;-65
2021/12/29 06:23:32;;;;;;;;;;;20.40;53.90;;;;;;5041572;28;19991;-64
2021/12/29 06:25:58;;;;;;;;;;;20.40;53.90;;;;;;5043290;28;19915;-63
2021/12/29 06:28:23;;;;;;;;;;;20.40;53.90;;;;;;5044563;28;19924;-65
2021/12/29 06:30:49;;;;;;;;;;;20.40;53.90;;;;;;5039709;28;20625;-67
2021/12/29 06:33:14;;;;;;;;;;;20.40;53.90;;;;;;5043435;28;19928;-68
2021/12/29 06:35:40;;;;;;;;;;;20.40;53.90;;;;;;5043387;28;19917;-67
2021/12/29 06:38:05;;;;;;;;;;;20.40;54.40;;;;;;5040438;28;19913;-64
2021/12/29 06:40:31;;;;;;;;;;;20.40;53.90;;;;;;5036640;28;19947;-64
2021/12/29 06:42:57;;;;;;;;;;;20.40;53.90;;;;;;5042955;28;19963;-64
2021/12/29 06:45:22;;;;;;;;;;;20.40;54.00;;;;;;5042753;28;19936;-63
2021/12/29 06:47:48;;;;;;;;;;;20.40;53.90;;;;;;5044388;28;20363;-64
2021/12/29 06:50:13;;;;;;;;;;;20.40;54.00;;;;;;5042530;28;19967;-63
2021/12/29 06:52:38;;;;;;;;;;;20.40;53.90;;;;;;5040052;28;19951;-63
2021/12/29 06:55:04;;;;;;;;;;;20.40;53.90;;;;;;5043997;28;19908;-65
2021/12/29 06:57:30;;;;;;;;;;;20.40;53.90;;;;;;5042585;28;19916;-64
2021/12/29 06:59:55;;;;;;;;;;;20.40;53.90;;;;;;5039688;28;19909;-64
2021/12/29 07:02:21;;;;;;;;;;;20.40;53.90;;;;;;5039427;28;19946;-65
2021/12/29 07:04:46;;;;;;;;;;;20.40;53.90;;;;;;5042363;28;19982;-64
2021/12/29 07:07:12;;;;;;;;;;;20.40;54.50;;;;;;5038878;28;19961;-66
2021/12/29 07:09:37;;;;;;;;;;;20.40;53.90;;;;;;5044664;28;20301;-65
2021/12/29 07:12:03;;;;;;;;;;;20.30;53.80;;;;;;5042412;28;19960;-66
2021/12/29 07:14:29;;;;;;;;;;;20.30;53.90;;;;;;5045113;28;20352;-65
2021/12/29 07:16:54;;;;;;;;;;;20.30;53.90;;;;;;5043359;28;19952;-64
2021/12/29 07:19:20;;;;;;;;;;;20.30;53.90;;;;;;5046265;28;19917;-64
2021/12/29 07:21:46;;;;;;;;;;;20.30;53.90;;;;;;5044828;28;19916;-64
2021/12/29 07:24:12;;;;;;;;;;;20.30;53.90;;;;;;5048613;28;19913;-65
2021/12/29 07:26:38;;;;;;;;;;;20.30;53.90;;;;;;5048450;28;20015;-65
2021/12/29 07:29:04;;;;;;;;;;;20.30;53.90;;;;;;5048400;28;20031;-68
2021/12/29 07:31:30;;;;;;;;;;;20.30;54.00;;;;;;5045937;28;19920;-65
2021/12/29 07:33:56;;;;;;;;;;;20.30;54.00;;;;;;5046140;28;19959;-65
2021/12/29 07:36:21;;;;;;;;;;;20.30;54.00;;;;;;5044688;28;19916;-65
2021/12/29 07:38:47;;;;;;;;;;;20.30;54.00;;;;;;5046653;28;19967;-63
2021/12/29 07:41:13;;;;;;;;;;;20.30;54.00;;;;;;5047161;28;19913;-64
2021/12/29 07:43:39;;;;;;;;;;;20.30;54.00;;;;;;5047411;28;19952;-68
2021/12/29 07:46:08;;;;;;;;;;;20.30;54.10;;;;;;5041800;28;19924;-66
2021/12/29 07:48:34;;;;;;;;;;;20.30;54.10;;;;;;5041214;28;20094;-64
2021/12/29 07:51:02;;;;;;;;;;;20.30;54.10;;;;;;5042543;28;19920;-64
2021/12/29 07:53:27;;;;;;;;;;;20.30;54.20;;;;;;5044767;28;20053;-65
2021/12/29 07:55:53;;;;;;;;;;;20.30;54.10;;;;;;5046980;28;20098;-65
2021/12/29 07:58:19;;;;;;;;;;;20.30;54.10;;;;;;5047669;28;19919;-64
2021/12/29 08:00:44;;;;;;;;;;;20.30;54.20;;;;;;5045721;28;19971;-64
2021/12/29 08:03:11;;;;;;;;;;;20.30;54.20;;;;;;5047189;28;19916;-63
2021/12/29 08:05:37;;;;;;;;;;;20.30;54.20;;;;;;5041387;28;19916;-67
2021/12/29 08:08:05;;;;;;;;;;;20.20;54.20;;;;;;5044445;28;19913;-63
2021/12/29 08:10:31;;;;;;;;;;;20.30;54.20;;;;;;5043285;28;19928;-64
2021/12/29 08:12:57;;;;;;;;;;;20.30;54.20;;;;;;5046143;28;20336;-63
2021/12/29 08:15:23;;;;;;;;;;;20.20;54.20;;;;;;5044526;28;20003;-64
2021/12/29 08:17:48;;;;;;;;;;;20.20;54.20;;;;;;5045668;28;19920;-67
2021/12/29 08:20:14;;;;;;;;;;;20.30;54.20;;;;;;5046114;28;19920;-67
2021/12/29 08:22:39;;;;;;;;;;;20.20;54.20;;;;;;5043884;28;20019;-64
2021/12/29 08:25:06;;;;;;;;;;;20.20;54.20;;;;;;5044426;28;20286;-65
2021/12/29 08:27:33;;;;;;;;;;;20.20;54.20;;;;;;5043754;28;19969;-65
2021/12/29 08:29:58;;;;;;;;;;;20.20;54.20;;;;;;5046363;28;19973;-67
2021/12/29 08:32:24;;;;;;;;;;;20.20;54.30;;;;;;5044508;28;19917;-64
2021/12/29 08:34:49;;;;;;;;;;;20.20;54.20;;;;;;5047341;28;19919;-64
2021/12/29 08:37:15;;;;;;;;;;;20.20;54.20;;;;;;5039192;28;19912;-65
2021/12/29 08:39:40;;;;;;;;;;;20.20;54.20;;;;;;5046969;28;20050;-64
2021/12/29 08:42:06;;;;;;;;;;;20.20;54.20;;;;;;5044631;28;20609;-65
2021/12/29 08:44:31;;;;;;;;;;;20.20;54.10;;;;;;5046176;28;19904;-64
2021/12/29 08:46:57;;;;;;;;;;;20.20;54.10;;;;;;5044781;28;20415;-64
2021/12/29 08:49:23;;;;;;;;;;;20.30;54.10;;;;;;5044040;28;19963;-65
2021/12/29 08:51:48;;;;;;;;;;;20.20;54.10;;;;;;5044563;28;19940;-67
2021/12/29 08:54:14;;;;;;;;;;;20.20;54.10;;;;;;5046771;28;19924;-65
2021/12/29 08:56:39;;;;;;;;;;;20.20;54.10;;;;;;5044355;28;19963;-67
2021/12/29 08:59:05;;;;;;;;;;;20.20;54.20;;;;;;5047048;28;19908;-65
2021/12/29 09:01:30;;;;;;;;;;;20.20;54.20;;;;;;5042444;28;20000;-65
2021/12/29 09:03:56;;;;;;;;;;;20.20;54.10;;;;;;5043138;28;19917;-66
2021/12/29 09:06:22;;;;;;;;;;;20.20;54.10;;;;;;5038935;28;19959;-67
2021/12/29 09:08:47;;;;;;;;;;;20.20;54.10;;;;;;5040336;28;19915;-67
2021/12/29 09:11:13;;;;;;;;;;;20.20;54.20;;;;;;5052385;28;20524;-65
2021/12/29 09:13:39;;;;;;;;;;;20.20;54.20;;;;;;5038878;28;20628;-67
2021/12/29 09:16:05;;;;;;;;;;;20.20;54.10;;;;;;5039360;28;19916;-66
2021/12/29 09:18:32;;;;;;;;;;;20.20;54.20;;;;;;5041217;28;19909;-67
2021/12/29 09:21:04;;;;;;;;;;;20.20;54.20;;;;;;5043822;28;19913;-65
2021/12/29 09:23:30;;;;;;;;;;;20.20;54.20;;;;;;5041289;28;19926;-67
2021/12/29 09:25:55;;;;;;;;;;;20.20;54.20;;;;;;5042371;28;19913;-66
2021/12/29 09:28:22;;;;;;;;;;;20.20;54.20;;;;;;5041425;28;19963;-66
2021/12/29 09:30:48;;;;;;;;;;;20.20;54.30;;;;;;5041848;28;19990;-67
2021/12/29 09:33:15;;;;;;;;;;;20.20;54.40;;;;;;5037235;28;20451;-67
2021/12/29 09:35:41;;;;;;;;;;;20.30;54.60;;;;;;5035982;28;19924;-65
2021/12/29 09:38:08;;;;;;;;;;;20.30;54.70;;;;;;5035199;28;19917;-67
2021/12/29 09:40:34;;;;;;;;;;;20.30;54.80;;;;;;5038620;28;20003;-66
2021/12/29 09:43:00;;;;;;;;;;;20.40;54.90;;;;;;5038927;28;19912;-67
2021/12/29 09:45:26;;;;;;;;;;;20.40;54.80;;;;;;5044267;28;20485;-65
2021/12/29 09:47:53;;;;;;;;;;;20.40;54.90;;;;;;5039062;28;19938;-67
2021/12/29 09:50:20;;;;;;;;;;;20.50;54.90;;;;;;5042038;28;19917;-64
2021/12/29 09:52:46;;;;;;;;;;;20.50;54.90;;;;;;5038928;28;19947;-66
2021/12/29 09:55:12;;;;;;;;;;;20.60;54.90;;;;;;5044959;28;20005;-65
2021/12/29 09:57:41;;;;;;;;;;;20.60;54.90;;;;;;5039819;28;19917;-66
2021/12/29 10:00:08;;;;;;;;;;;20.60;54.90;;;;;;5042896;28;20233;-65
2021/12/29 10:02:33;;;;;;;;;;;20.70;55.00;;;;;;5035939;28;20534;-66
2021/12/29 10:04:59;;;;;;;;;;;20.60;54.90;;;;;;5041953;28;19920;-66
2021/12/29 10:07:26;;;;;;;;;;;20.70;55.00;;;;;;5038551;28;20339;-64
2021/12/29 10:09:52;;;;;;;;;;;20.70;55.10;;;;;;5038135;28;20018;-65
2021/12/29 10:12:21;;;;;;;;;;;20.70;55.10;;;;;;5041024;28;19958;-68
2021/12/29 10:14:54;;;;;;;;;;;20.70;55.00;;;;;;5044106;28;20245;-65
2021/12/29 10:17:24;;;;;;;;;;;20.60;55.10;;;;;;5039545;28;19915;-63
2021/12/29 10:19:59;;;;;;;;;;;20.60;55.10;;;;;;5035914;28;19944;-66
2021/12/29 10:22:24;;;;;;;;;;;20.60;55.10;;;;;;5036175;28;20432;-65
2021/12/29 10:25:01;;;;;;;;;;;20.60;55.10;;;;;;5041595;28;19919;-65
2021/12/29 10:27:29;;;;;;;;;;;20.60;55.10;;;;;;5032054;28;20020;-63
2021/12/29 10:29:55;;;;;;;;;;;20.60;54.80;;;;;;5038187;28;19939;-66
2021/12/29 10:32:23;;;;;;;;;;;20.60;54.70;;;;;;5038436;28;20020;-67
2021/12/29 10:34:50;;;;;;;;;;;20.60;54.70;;;;;;5041069;28;19917;-65
2021/12/29 10:37:17;;;;;;;;;;;20.60;54.80;;;;;;5041660;28;19912;-65
2021/12/29 10:39:44;;;;;;;;;;;20.60;54.80;;;;;;5040900;28;20007;-66
2021/12/29 10:42:14;;;;;;;;;;;20.50;54.80;;;;;;5032070;28;19924;-65
2021/12/29 10:44:51;;;;;;;;;;;20.50;54.70;;;;;;5033813;28;20368;-64
2021/12/29 10:47:21;;;;;;;;;;;20.50;54.70;;;;;;5037462;28;19917;-65
2021/12/29 10:50:00;;;;;;;;;;;20.50;54.70;;;;;;5041391;28;19913;-65
2021/12/29 10:52:29;;;;;;;;;;;20.50;54.70;;;;;;5037466;28;19920;-67
2021/12/29 10:54:55;;;;;;;;;;;20.50;54.70;;;;;;5035738;28;20618;-67
2021/12/29 10:57:20;;;;;;;;;;;20.50;54.70;;;;;;5040137;28;19970;-64
2021/12/29 10:59:51;;;;;;;;;;;20.50;54.60;;;;;;5036355;28;19917;-66
2021/12/29 11:02:23;;;;;;;;;;;20.50;54.70;;;;;;5035813;28;21822;-67
2021/12/29 11:05:00;;;;;;;;;;;20.50;54.60;;;;;;5039409;28;19913;-66
2021/12/29 11:07:27;;;;;;;;;;;20.50;54.60;;;;;;5036294;28;20003;-64
2021/12/29 11:09:52;;;;;;;;;;;20.50;54.60;;;;;;5038600;28;19916;-65
2021/12/29 11:12:20;;;;;;;;;;;20.50;54.60;;;;;;5043996;28;19925;-67
2021/12/29 11:14:50;;;;;;;;;;;20.50;54.60;;;;;;5041969;28;19917;-65
2021/12/29 11:17:20;;;;;;;;;;;20.40;54.50;;;;;;5042135;28;20030;-67
2021/12/29 11:19:50;;;;;;;;;;;20.40;54.60;;;;;;5042930;28;19912;-63
2021/12/29 11:22:17;;;;;;;;;;;20.40;54.50;;;;;;5036729;28;20262;-65
2021/12/29 11:24:43;;;;;;;;;;;20.40;54.60;;;;;;5040092;28;20034;-67
2021/12/29 11:27:16;;;;;;;;;;;20.40;54.50;;;;;;5036092;28;19928;-64
2021/12/29 11:29:52;;;;;;;;;;;20.40;54.50;;;;;;5041941;28;19912;-66
2021/12/29 11:32:19;;;;;;;;;;;20.40;54.50;;;;;;5038056;28;20009;-64
2021/12/29 11:34:45;;;;;;;;;;;20.40;54.50;;;;;;5045016;28;19975;-66
2021/12/29 11:37:14;;;;;;;;;;;20.40;54.50;;;;;;5035665;28;19912;-66
2021/12/29 11:39:41;;;;;;;;;;;20.40;54.50;;;;;;5040091;28;19920;-65
2021/12/29 11:42:06;;;;;;;;;;;20.40;54.50;;;;;;5035487;28;19959;-65
2021/12/29 11:44:32;;;;;;;;;;;20.40;54.50;;;;;;5035314;28;19978;-63
2021/12/29 11:46:58;;;;;;;;;;;20.30;54.50;;;;;;5039964;28;19940;-62
2021/12/29 11:49:24;;;;;;;;;;;20.40;54.50;;;;;;5040134;28;20007;-67
2021/12/29 11:52:10;;;;;;;;;;;20.40;54.50;;;;;;5036307;28;20345;-65
2021/12/29 11:54:41;;;;;;;;;;;20.40;54.50;;;;;;5040047;28;20365;-64
2021/12/29 11:57:11;;;;;;;;;;;20.40;54.50;;;;;;5043045;28;19989;-64
2021/12/29 11:59:37;;;;;;;;;;;20.30;54.40;;;;;;5039815;28;20317;-67
2021/12/29 12:02:03;;;;;;;;;;;20.30;54.40;;;;;;5039614;28;19920;-67
2021/12/29 12:04:28;;;;;;;;;;;20.30;54.40;;;;;;5046338;28;19908;-65
2021/12/29 12:07:04;;;;;;;;;;;20.30;54.40;;;;;;5044776;28;20452;-67
2021/12/29 12:09:43;;;;;;;;;;;20.30;54.40;;;;;;5044265;28;19908;-63
2021/12/29 12:12:08;;;;;;;;;;;20.30;54.40;;;;;;5046063;28;19970;-67
2021/12/29 12:14:36;;;;;;;;;;;20.30;54.40;;;;;;5044429;28;20284;-65
2021/12/29 12:17:04;;;;;;;;;;;20.30;54.40;;;;;;5041153;28;19954;-65
2021/12/29 12:19:30;;;;;;;;;;;20.30;54.40;;;;;;5039998;28;19924;-64
2021/12/29 12:22:05;;;;;;;;;;;20.30;54.40;;;;;;5039798;28;20019;-65
2021/12/29 12:24:31;;;;;;;;;;;20.30;54.30;;;;;;5043573;28;19909;-67
2021/12/29 12:26:58;;;;;;;;;;;20.30;54.40;;;;;;5040664;28;20003;-68
2021/12/29 12:29:26;;;;;;;;;;;20.30;54.40;;;;;;5042639;28;19912;-64
2021/12/29 12:32:03;;;;;;;;;;;20.30;54.40;;;;;;5036315;28;19916;-65
2021/12/29 12:34:29;;;;;;;;;;;20.30;54.40;;;;;;5040089;28;19916;-65
2021/12/29 12:36:54;;;;;;;;;;;20.30;54.40;;;;;;5040329;28;19978;-66
2021/12/29 12:39:21;;;;;;;;;;;20.30;54.40;;;;;;5043725;28;19916;-65
2021/12/29 12:41:53;;;;;;;;;;;20.30;54.40;;;;;;5040500;28;19936;-67
2021/12/29 12:44:29;;;;;;;;;;;20.30;54.40;;;;;;5043803;28;19964;-66
2021/12/29 12:46:54;;;;;;;;;;;20.30;54.50;;;;;;5037320;28;20370;-65
2021/12/29 12:49:28;;;;;;;;;;;20.30;54.40;;;;;;5041968;28;20010;-65
2021/12/29 12:51:55;;;;;;;;;;;20.30;54.40;;;;;;5035037;28;19912;-63
2021/12/29 12:54:22;;;;;;;;;;;20.30;54.50;;;;;;5041356;28;20102;-65
2021/12/29 12:56:48;;;;;;;;;;;20.20;54.40;;;;;;5042456;28;19909;-67
2021/12/29 12:59:14;;;;;;;;;;;20.30;54.40;;;;;;5041024;28;19916;-64
2021/12/29 13:01:46;;;;;;;;;;;20.30;54.50;;;;;;5032282;28;20016;-67
2021/12/29 13:04:13;;;;;;;;;;;20.20;54.40;;;;;;5040201;28;19923;-65
2021/12/29 13:06:40;;;;;;;;;;;20.20;54.40;;;;;;5041801;28;19971;-65
2021/12/29 13:09:07;;;;;;;;;;;20.30;54.50;;;;;;5042834;28;20067;-64
2021/12/29 13:11:35;;;;;;;;;;;20.30;54.50;;;;;;5037763;28;19917;-63
2021/12/29 13:14:02;;;;;;;;;;;20.20;54.40;;;;;;5038500;28;19996;-65
2021/12/29 13:16:28;;;;;;;;;;;20.20;54.40;;;;;;5037100;28;19923;-66
2021/12/29 13:18:54;;;;;;;;;;;20.20;54.40;;;;;;5042665;28;20617;-64
2021/12/29 13:21:24;;;;;;;;;;;20.20;54.40;;;;;;5042960;28;19958;-64
2021/12/29 13:23:50;;;;;;;;;;;20.20;54.90;;;;;;5039829;28;19935;-65
2021/12/29 13:26:16;;;;;;;;;;;20.20;54.40;;;;;;5042107;28;19987;-63
2021/12/29 13:28:41;;;;;;;;;;;20.20;54.40;;;;;;5041080;28;19999;-65
2021/12/29 13:31:08;;;;;;;;;;;20.20;54.90;;;;;;5040608;28;20412;-66
2021/12/29 13:33:40;;;;;;;;;;;20.20;54.40;;;;;;5037610;28;19943;-65
2021/12/29 13:36:06;;;;;;;;;;;20.30;54.40;;;;;;5045088;28;19919;-67
2021/12/29 13:38:32;;;;;;;;;;;20.20;54.40;;;;;;5043347;28;19913;-63
2021/12/29 13:41:00;;;;;;;;;;;20.20;54.40;;;;;;5042915;28;20282;-67
2021/12/29 13:43:27;;;;;;;;;;;20.20;54.40;;;;;;5045107;28;19919;-65
2021/12/29 13:45:54;;;;;;;;;;;20.20;54.40;;;;;;5044199;28;19913;-67
2021/12/29 13:48:24;;;;;;;;;;;20.20;54.40;;;;;;5045964;28;20031;-64
2021/12/29 13:51:02;;;;;;;;;;;20.20;54.40;;;;;;5036275;28;19917;-66
2021/12/29 13:53:28;;;;;;;;;;;20.20;54.40;;;;;;5038983;28;19916;-67
2021/12/29 13:55:55;;;;;;;;;;;20.20;54.40;;;;;;5040849;28;19912;-65
2021/12/29 13:58:21;;;;;;;;;;;20.20;54.40;;;;;;5045139;28;19913;-66
2021/12/29 14:00:46;;;;;;;;;;;20.20;54.40;;;;;;5041732;28;19912;-64
2021/12/29 14:03:12;;;;;;;;;;;20.20;54.40;;;;;;5045019;28;20371;-64
2021/12/29 14:05:39;;;;;;;;;;;20.20;54.40;;;;;;5046146;28;19909;-64
2021/12/29 14:08:05;;;;;;;;;;;20.20;54.40;;;;;;5041784;28;19920;-63
2021/12/29 14:10:31;;;;;;;;;;;20.20;54.40;;;;;;5043274;28;19920;-63
2021/12/29 14:13:03;;;;;;;;;;;20.20;54.40;;;;;;5045256;28;19909;-65
2021/12/29 14:15:30;;;;;;;;;;;20.20;54.40;;;;;;5041091;28;19928;-65
2021/12/29 14:17:58;;;;;;;;;;;20.20;54.40;;;;;;5042303;28;19995;-67
2021/12/29 14:20:23;;;;;;;;;;;20.20;54.40;;;;;;5038481;28;19970;-66
2021/12/29 14:22:49;;;;;;;;;;;20.20;54.40;;;;;;5042827;28;19912;-64